Time;durP1;ratioP1;P1;durP2;ratioP2;P2;SDS_P1;SDS_P2;PMS_P1;PMS_P2;Temp;Humidity;BMP_temperature;BMP_pressure;BME280_temperature;BME280_humidity;BME280_pressure;Samples;Min_cycle;Max_cycle;Signal;HPM_P1;HPM_P2
2021/05/03 00:01:07;;;;;;;6.50;5.80;;;;;;;10.72;65.78;99642.44;4277198;33;34013;-93
2021/05/03 00:03:40;;;;;;;6.75;5.40;;;;;;;10.75;65.76;99644.75;4277464;33;35538;-93
2021/05/03 00:06:12;;;;;;;6.78;5.70;;;;;;;10.67;65.80;99650.28;4292583;33;34429;-84
2021/05/03 00:08:45;;;;;;;6.32;5.68;;;;;;;10.93;65.29;99651.63;4302572;33;33140;-93
2021/05/03 00:11:17;;;;;;;6.25;5.65;;;;;;;10.87;65.09;99663.19;4303378;33;34829;-85
2021/05/03 00:13:50;;;;;;;8.77;5.97;;;;;;;10.94;64.99;99656.84;4314813;33;33756;-85
2021/05/03 00:16:23;;;;;;;8.15;6.00;;;;;;;10.90;64.99;99652.00;4302895;33;33573;-85
2021/05/03 00:18:55;;;;;;;7.53;5.97;;;;;;;10.92;65.24;99655.34;4314717;33;34081;-93
2021/05/03 00:21:27;;;;;;;6.80;5.90;;;;;;;11.17;64.33;99654.94;4303164;33;33521;-93
2021/05/03 00:24:01;;;;;;;7.57;6.40;;;;;;;11.27;63.90;99663.59;4303342;33;35799;-85
2021/05/03 00:26:33;;;;;;;7.53;6.65;;;;;;;11.07;64.36;99675.03;4301715;33;33762;-85
2021/05/03 00:29:10;;;;;;;8.05;6.68;;;;;;;10.88;65.04;99667.56;4303087;33;34173;-94
2021/05/03 00:31:42;;;;;;;8.13;6.20;;;;;;;10.82;65.34;99671.03;4302942;33;33651;-85
2021/05/03 00:34:16;;;;;;;10.07;6.70;;;;;;;10.93;64.71;99676.78;4290441;33;34669;-84
2021/05/03 00:36:48;;;;;;;7.62;6.53;;;;;;;10.60;66.11;99676.41;4276896;33;34909;-85
2021/05/03 00:39:20;;;;;;;8.23;6.78;;;;;;;10.77;65.96;99674.31;4288511;33;33424;-85
2021/05/03 00:42:02;;;;;;;7.85;6.40;;;;;;;10.87;64.87;99674.03;4287657;33;34098;-94
2021/05/03 00:44:35;;;;;;;;;;;;;;;10.71;65.22;99675.91;4300082;33;33783;-92
2021/05/03 00:47:08;;;;;;;8.45;6.97;;;;;;;10.98;64.66;99680.78;4288607;33;34579;-94
2021/05/03 00:49:41;;;;;;;10.10;7.60;;;;;;;10.96;64.33;99686.38;4288404;33;34565;-92
2021/05/03 00:52:13;;;;;;;9.60;7.28;;;;;;;10.73;64.81;99692.78;4287955;33;35044;-92
2021/05/03 00:54:46;;;;;;;9.63;7.62;;;;;;;10.83;64.54;99694.34;4300907;33;34611;-95
2021/05/03 00:57:18;;;;;;;8.68;6.47;;;;;;;10.88;64.19;99700.00;4288272;33;33344;-84
2021/05/03 00:59:52;;;;;;;8.52;6.75;;;;;;;10.92;64.17;99704.00;4289271;33;34367;-96
2021/05/03 01:02:24;;;;;;;10.52;7.75;;;;;;;10.90;63.32;99704.19;4288008;33;33025;-84
2021/05/03 01:04:57;;;;;;;11.38;7.55;;;;;;;10.93;63.29;99711.09;4288069;33;34288;-85
2021/05/03 01:07:29;;;;;;;10.35;6.85;;;;;;;10.98;62.54;99703.25;4311280;33;33593;-92
2021/05/03 01:10:03;;;;;;;10.35;7.20;;;;;;;10.89;63.24;99709.81;4313873;33;35596;-93
2021/05/03 01:12:37;;;;;;;7.72;6.90;;;;;;;10.90;62.99;99706.91;4325469;33;32810;-84
2021/05/03 01:15:11;;;;;;;8.93;7.03;;;;;;;11.02;62.32;99693.72;4325537;33;34449;-85
2021/05/03 01:17:43;;;;;;;9.70;7.35;;;;;;;11.06;62.38;99705.84;4302586;33;33567;-93
2021/05/03 01:20:23;;;;;;;8.30;6.72;;;;;;;11.35;61.15;99704.06;4313358;33;34858;-85
2021/05/03 01:22:58;;;;;;;8.27;6.75;;;;;;;11.31;60.79;99702.75;4301275;33;34651;-85
2021/05/03 01:25:37;;;;;;;7.87;6.53;;;;;;;11.24;61.48;99713.53;4302066;33;33990;-85
2021/05/03 01:28:09;;;;;;;12.13;7.72;;;;;;;11.03;61.64;99714.34;4325883;33;36787;-92
2021/05/03 01:30:44;;;;;;;7.62;6.82;;;;;;;11.08;61.92;99720.00;4306308;33;34607;-84
2021/05/03 01:33:18;;;;;;;8.25;6.85;;;;;;;11.07;61.92;99725.59;4296124;33;33641;-85
2021/05/03 01:35:50;;;;;;;8.55;6.45;;;;;;;11.22;61.58;99726.37;4284592;33;35633;-93
2021/05/03 01:38:22;;;;;;;8.65;6.62;;;;;;;11.19;62.03;99732.19;4284782;33;35391;-91
2021/05/03 01:40:56;;;;;;;6.62;5.72;;;;;;;11.20;62.71;99735.75;4286322;33;34163;-95
2021/05/03 01:43:28;;;;;;;8.82;6.35;;;;;;;10.96;64.05;99748.59;4286628;33;36190;-85
2021/05/03 01:46:02;;;;;;;6.70;5.57;;;;;;;11.10;63.68;99744.97;4286444;33;36536;-85
2021/05/03 01:48:36;;;;;;;6.50;5.65;;;;;;;11.09;63.80;99742.47;4287334;33;34164;-96
2021/05/03 01:51:14;;;;;;;7.72;6.18;;;;;;;10.98;64.01;99738.41;4298494;33;35525;-85
2021/05/03 01:53:47;;;;;;;7.10;5.95;;;;;;;10.92;63.61;99742.69;4299510;33;34556;-94
2021/05/03 01:56:24;;;;;;;6.55;5.00;;;;;;;10.73;64.16;99744.16;4289433;33;34162;-93
2021/05/03 01:58:57;;;;;;;7.65;5.72;;;;;;;10.67;63.63;99747.56;4288953;33;34783;-95
2021/05/03 02:01:36;;;;;;;9.23;6.43;;;;;;;10.58;63.43;99760.38;4302545;33;35009;-93
2021/05/03 02:04:12;;;;;;;7.50;5.72;;;;;;;10.74;61.84;99750.37;4302282;33;33622;-96
2021/05/03 02:06:45;;;;;;;7.35;6.05;;;;;;;10.41;60.32;99738.09;4308929;33;34208;-85
2021/05/03 02:09:19;;;;;;;6.82;5.55;;;;;;;10.72;60.11;99752.44;4315230;33;33365;-95
2021/05/03 02:11:59;;;;;;;8.23;5.57;;;;;;;10.76;59.83;99746.47;4317691;33;34428;-96
2021/05/03 02:14:51;;;;;;;8.98;7.15;;;;;;;10.60;60.12;99743.97;4315853;33;34571;-96
2021/05/03 02:17:23;;;;;;;6.78;5.28;;;;;;;10.63;59.86;99746.31;4314913;33;33704;-85
2021/05/03 02:19:56;;;;;;;8.65;6.87;;;;;;;10.65;59.66;99756.94;4305585;33;34539;-94
2021/05/03 02:22:29;;;;;;;7.60;5.75;;;;;;;10.68;59.33;99751.13;4327322;33;32850;-93
2021/05/03 02:25:03;;;;;;;9.13;6.57;;;;;;;10.69;59.54;99759.06;4326928;33;34685;-85
2021/05/03 02:27:35;;;;;;;8.02;6.30;;;;;;;10.68;59.05;99751.97;4304787;33;34945;-85
2021/05/03 02:30:09;;;;;;;8.80;5.55;;;;;;;10.52;59.38;99750.28;4305823;33;33259;-92
2021/05/03 02:32:42;;;;;;;6.90;5.37;;;;;;;10.56;59.38;99748.06;4302857;33;35087;-85
2021/05/03 02:35:17;;;;;;;8.10;5.95;;;;;;;10.33;59.18;99750.81;4305364;33;34620;-85
2021/05/03 02:37:53;;;;;;;7.20;5.82;;;;;;;10.25;59.42;99746.34;4305091;33;33823;-93
2021/05/03 02:40:27;;;;;;;7.62;5.90;;;;;;;10.41;58.83;99753.47;4303512;33;34972;-94
2021/05/03 02:43:01;;;;;;;8.05;5.12;;;;;;;10.69;57.94;99740.13;4317011;33;34283;-95
2021/05/03 02:45:44;;;;;;;6.65;5.80;;;;;;;10.57;58.73;99747.06;4303794;33;36685;-85
2021/05/03 02:48:16;;;;;;;7.25;6.18;;;;;;;10.60;58.14;99743.97;4304504;33;34042;-84
2021/05/03 02:50:52;;;;;;;6.25;5.20;;;;;;;10.48;58.42;99753.56;4301401;33;35149;-85
2021/05/03 02:53:24;;;;;;;8.48;6.57;;;;;;;10.38;58.98;99756.56;4302804;33;34056;-85
2021/05/03 02:55:57;;;;;;;6.97;5.75;;;;;;;10.28;59.57;99764.06;4303229;33;33179;-92
2021/05/03 02:58:29;;;;;;;7.18;5.40;;;;;;;10.30;59.75;99768.25;4303212;33;35500;-93
2021/05/03 03:01:02;;;;;;;8.45;5.93;;;;;;;10.53;59.44;99779.00;4315473;33;34951;-93
2021/05/03 03:03:35;;;;;;;7.53;5.85;;;;;;;10.26;60.45;99775.03;4293239;33;34528;-94
2021/05/03 03:06:11;;;;;;;6.97;5.87;;;;;;;10.46;60.37;99771.81;4314418;33;33739;-94
2021/05/03 03:08:44;;;;;;;6.93;6.22;;;;;;;10.55;59.88;99760.75;4291725;33;33781;-95
2021/05/03 03:11:16;;;;;;;7.68;5.53;;;;;;;10.71;59.90;99756.16;4303831;33;33584;-90
2021/05/03 03:13:49;;;;;;;9.57;5.70;;;;;;;10.64;60.16;99766.88;4315783;33;33086;-84
2021/05/03 03:16:22;;;;;;;8.10;5.78;;;;;;;10.62;60.08;99774.34;4303071;33;35354;-92
2021/05/03 03:18:58;;;;;;;7.55;6.22;;;;;;;10.41;61.27;99766.97;4315169;33;37102;-94
2021/05/03 03:21:33;;;;;;;7.37;6.47;;;;;;;10.48;61.02;99780.56;4315461;33;33403;-93
2021/05/03 03:24:17;;;;;;;8.10;6.10;;;;;;;10.42;61.34;99782.19;4315121;33;33890;-95
2021/05/03 03:26:50;;;;;;;7.35;5.72;;;;;;;10.28;61.96;99802.69;4302951;33;34390;-93
2021/05/03 03:29:22;;;;;;;8.05;6.60;;;;;;;10.50;61.23;99803.69;4316061;33;34476;-85
2021/05/03 03:31:55;;;;;;;7.28;5.90;;;;;;;10.30;61.86;99814.19;4326440;33;34424;-84
2021/05/03 03:34:27;;;;;;;7.65;6.07;;;;;;;10.59;60.93;99801.75;4315149;33;36224;-84
2021/05/03 03:36:59;;;;;;;7.75;6.10;;;;;;;10.57;60.81;99807.34;4303300;33;34021;-85
2021/05/03 03:39:32;;;;;;;7.30;6.32;;;;;;;10.57;61.07;99806.50;4304846;33;33882;-84
2021/05/03 03:42:04;;;;;;;7.07;6.07;;;;;;;10.35;61.01;99810.97;4303003;33;34482;-93
2021/05/03 03:44:37;;;;;;;6.70;5.60;;;;;;;10.58;61.00;99825.25;4303877;33;34108;-85
2021/05/03 03:47:10;;;;;;;7.15;5.35;;;;;;;10.62;59.96;99823.00;4314254;33;33289;-84
2021/05/03 03:49:42;;;;;;;7.07;5.72;;;;;;;10.55;59.75;99825.63;4304773;33;33674;-85
2021/05/03 03:52:14;;;;;;;7.22;5.80;;;;;;;10.45;60.22;99833.16;4304484;33;33468;-85
2021/05/03 03:54:47;;;;;;;7.37;5.75;;;;;;;10.24;61.25;99833.81;4303281;33;32961;-93
2021/05/03 03:57:20;;;;;;;6.78;5.90;;;;;;;10.32;60.79;99833.72;4303120;33;35283;-89
2021/05/03 03:59:55;;;;;;;6.90;5.70;;;;;;;10.44;60.06;99830.63;4303521;33;33675;-85
2021/05/03 04:02:29;;;;;;;7.30;6.30;;;;;;;10.35;60.25;99841.50;4302553;33;34424;-85
2021/05/03 04:07:57;;;;;;;6.50;5.30;;;;;;;10.54;59.90;99847.41;4314572;33;35520;-84
2021/05/03 04:10:40;;;;;;;7.65;5.87;;;;;;;10.54;59.49;99855.53;4326675;33;33929;-84
2021/05/03 04:14:07;;;;;;;9.07;5.62;;;;;;;10.31;60.37;99861.75;4315382;33;34919;-92
2021/05/03 04:25:09;;;;;;;6.50;5.30;;;;;;;10.53;58.71;99867.34;4303300;33;34679;-91
2021/05/03 04:27:42;;;;;;;5.93;5.20;;;;;;;10.50;58.79;99875.81;4304996;33;33897;-94
2021/05/03 04:30:15;;;;;;;6.43;5.82;;;;;;;10.45;58.74;99880.94;4326817;33;34056;-85
2021/05/03 04:32:48;;;;;;;6.00;5.07;;;;;;;10.30;58.95;99876.31;4302839;33;35043;-84
2021/05/03 04:35:20;;;;;;;6.55;4.97;;;;;;;10.52;58.41;99876.47;4303733;33;33791;-93
2021/05/03 04:37:53;;;;;;;8.60;4.90;;;;;;;10.21;59.66;99885.50;4315049;33;34022;-84
2021/05/03 04:40:25;;;;;;;5.90;4.85;;;;;;;10.56;58.55;99883.19;4304101;33;33665;-85
2021/05/03 04:42:57;;;;;;;6.00;4.70;;;;;;;10.51;58.40;99878.34;4326466;33;33772;-96
2021/05/03 04:45:34;;;;;;;6.60;5.20;;;;;;;10.43;58.11;99878.41;4303682;33;35452;-94
2021/05/03 04:48:07;;;;;;;5.60;4.82;;;;;;;10.40;57.48;99874.22;4326045;33;36408;-84
2021/05/03 04:50:42;;;;;;;5.68;4.32;;;;;;;10.40;57.70;99882.34;4304513;33;33639;-85
2021/05/03 04:53:16;;;;;;;4.82;4.18;;;;;;;10.50;57.38;99892.03;4291557;33;33487;-92
2021/05/03 04:55:48;;;;;;;6.72;4.62;;;;;;;10.49;57.26;99901.16;4302792;33;34294;-84
2021/05/03 04:58:29;;;;;;;6.00;4.80;;;;;;;10.84;56.55;99909.59;4314965;33;36103;-94
2021/05/03 05:01:01;;;;;;;5.85;4.20;;;;;;;10.59;56.19;99904.44;4302451;33;33819;-94
2021/05/03 05:03:34;;;;;;;6.82;4.47;;;;;;;10.60;56.93;99900.72;4315264;33;33466;-84
2021/05/03 05:06:06;;;;;;;9.20;4.55;;;;;;;10.36;57.11;99910.75;4316133;33;33573;-85
2021/05/03 05:08:43;;;;;;;7.37;4.65;;;;;;;10.55;56.33;99908.53;4305942;33;33269;-92
2021/05/03 05:11:16;;;;;;;7.65;4.43;;;;;;;10.52;56.44;99898.91;4293208;33;32718;-87
2021/05/03 05:13:48;;;;;;;7.03;5.20;;;;;;;10.81;56.18;99915.38;4328601;33;33872;-94
2021/05/03 05:16:21;;;;;;;4.45;3.78;;;;;;;10.81;55.19;99918.06;4317062;33;34477;-94
2021/05/03 05:18:55;;;;;;;5.90;4.90;;;;;;;10.90;55.50;99917.81;4329019;33;33077;-93
2021/05/03 05:21:27;;;;;;;5.85;4.30;;;;;;;10.81;54.75;99920.78;4306342;33;33391;-89
2021/05/03 05:23:59;;;;;;;5.50;4.72;;;;;;;11.03;54.62;99922.59;4317545;33;34626;-84
2021/05/03 05:26:32;;;;;;;6.00;4.82;;;;;;;10.97;54.74;99928.72;4328402;33;34389;-88
2021/05/03 05:29:05;;;;;;;5.75;4.50;;;;;;;10.71;54.98;99929.16;4325285;33;33536;-93
2021/05/03 05:31:37;;;;;;;6.20;4.87;;;;;;;10.63;55.57;99935.50;4306768;33;146446;-92
2021/05/03 05:34:11;;;;;;;6.62;4.45;;;;;;;10.81;55.17;99937.88;4304086;33;35264;-88
2021/05/03 05:36:46;;;;;;;7.37;5.50;;;;;;;10.76;55.06;99946.53;4303056;33;33102;-95
2021/05/03 05:39:20;;;;;;;5.57;4.70;;;;;;;10.89;54.74;99942.34;4305820;33;33716;-93
2021/05/03 05:41:59;;;;;;;8.15;4.22;;;;;;;10.83;54.25;99937.69;4324547;33;35347;-85
2021/05/03 05:44:35;;;;;;;6.12;4.85;;;;;;;10.86;53.57;99948.13;4328678;33;34317;-84
2021/05/03 05:47:10;;;;;;;6.10;4.82;;;;;;;11.06;53.65;99956.53;4307802;33;36185;-84
2021/05/03 05:49:43;;;;;;;10.23;4.37;;;;;;;11.24;54.33;99962.44;4313012;33;33293;-93
2021/05/03 05:52:16;;;;;;;5.60;4.35;;;;;;;11.16;53.24;99962.50;4316507;33;34315;-85
2021/05/03 05:54:48;;;;;;;6.65;4.32;;;;;;;11.34;53.46;99972.97;4304995;33;33764;-85
2021/05/03 05:57:21;;;;;;;7.35;5.07;;;;;;;11.44;52.06;99973.53;4317079;33;34501;-92
2021/05/03 05:59:57;;;;;;;6.25;4.20;;;;;;;11.36;52.48;99978.19;4306624;33;32953;-96
2021/05/03 06:02:29;;;;;;;5.40;4.68;;;;;;;11.11;52.95;99982.00;4318522;33;33754;-94
2021/05/03 06:05:09;;;;;;;6.85;4.90;;;;;;;11.09;52.45;99981.34;4294155;33;35014;-85
2021/05/03 06:07:42;;;;;;;5.75;4.68;;;;;;;11.12;51.37;99974.72;4313541;33;32400;-95
2021/05/03 06:10:18;;;;;;;6.10;4.20;;;;;;;10.87;51.72;99991.19;4292902;33;32245;-93
2021/05/03 06:12:51;;;;;;;7.30;4.85;;;;;;;10.98;52.36;99989.09;4312542;33;35053;-93
2021/05/03 06:15:25;;;;;;;5.28;4.62;;;;;;;10.99;51.58;99985.31;4325430;33;32693;-95
2021/05/03 06:18:01;;;;;;;7.60;5.37;;;;;;;11.21;52.54;99991.69;4312661;33;33702;-92
2021/05/03 06:20:40;;;;;;;7.00;5.22;;;;;;;11.17;52.65;99993.09;4324438;33;33851;-95
2021/05/03 06:23:12;;;;;;;5.72;5.03;;;;;;;11.34;52.50;100010.00;4311943;33;34248;-94
2021/05/03 06:25:45;;;;;;;5.68;4.60;;;;;;;10.98;52.57;100002.59;4313951;33;33765;-93
2021/05/03 06:28:19;;;;;;;5.35;4.78;;;;;;;11.09;51.78;100008.41;4311681;33;33591;-94
2021/05/03 06:30:57;;;;;;;5.68;4.62;;;;;;;11.18;51.95;100005.59;4312787;33;36183;-93
2021/05/03 06:33:29;;;;;;;6.30;5.07;;;;;;;11.43;51.72;100012.44;4302671;33;34770;-85
2021/05/03 06:36:03;;;;;;;8.38;5.65;;;;;;;11.48;51.99;100012.72;4303379;33;33396;-90
2021/05/03 06:38:38;;;;;;;7.62;5.72;;;;;;;11.94;51.54;100010.84;4323245;33;33659;-93
2021/05/03 06:41:24;;;;;;;7.10;5.55;;;;;;;12.01;49.63;100023.41;4295793;33;34283;-88
2021/05/03 06:43:56;;;;;;;9.05;6.32;;;;;;;12.13;49.53;100012.94;4318363;33;33802;-93
2021/05/03 06:46:52;;;;;;;10.60;5.65;;;;;;;12.02;49.74;100024.28;4328850;33;35002;-93
2021/05/03 06:49:24;;;;;;;8.85;5.50;;;;;;;12.24;49.40;100027.03;4317990;33;36396;-93
2021/05/03 06:51:57;;;;;;;5.65;4.93;;;;;;;12.46;49.17;100031.44;4328501;33;33112;-87
2021/05/03 06:54:29;;;;;;;8.23;6.57;;;;;;;12.46;47.69;100042.28;4315731;33;35062;-87
2021/05/03 06:57:02;;;;;;;6.78;5.43;;;;;;;12.27;47.64;100042.91;4318647;33;34593;-94
2021/05/03 06:59:34;;;;;;;7.35;5.80;;;;;;;12.24;48.80;100048.69;4317452;33;34667;-95
2021/05/03 07:02:14;;;;;;;7.60;5.72;;;;;;;12.34;48.78;100054.66;4302138;33;34177;-93
2021/05/03 07:04:47;;;;;;;7.93;6.47;;;;;;;12.34;48.65;100049.25;4316513;33;34037;-96
2021/05/03 07:07:34;;;;;;;6.15;5.35;;;;;;;12.38;49.33;100053.25;4326058;33;34447;-94
2021/05/03 07:10:08;;;;;;;7.62;4.72;;;;;;;12.59;48.58;100062.41;4355385;32;34188;-87
2021/05/03 07:12:47;;;;;;;7.95;5.60;;;;;;;12.70;48.73;100059.19;4336310;33;34404;-94
2021/05/03 07:15:24;;;;;;;8.30;5.20;;;;;;;12.89;48.09;100061.25;4332277;33;34496;-96
2021/05/03 07:17:57;;;;;;;7.80;5.72;;;;;;;12.56;48.02;100054.66;4330509;33;35029;-86
2021/05/03 07:20:30;;;;;;;6.65;5.60;;;;;;;12.95;46.03;100067.78;4332222;33;33292;-93
2021/05/03 07:23:08;;;;;;;9.27;5.30;;;;;;;12.89;46.63;100071.28;4356697;32;32265;-94
2021/05/03 07:25:41;;;;;;;6.20;5.00;;;;;;;13.00;49.26;100068.03;4340531;33;34280;-85
2021/05/03 07:28:21;;;;;;;5.95;4.45;;;;;;;13.47;46.47;100076.56;4353733;32;33589;-87
2021/05/03 07:30:58;;;;;;;5.45;3.75;;;;;;;13.35;45.03;100070.87;4341895;33;34435;-86
2021/05/03 07:33:31;;;;;;;5.65;3.83;;;;;;;13.22;44.17;100079.69;4332759;33;34008;-85
2021/05/03 07:36:04;;;;;;;4.97;3.22;;;;;;;12.93;43.57;100090.72;4332857;33;33706;-95
2021/05/03 07:38:51;;;;;;;;;;;;;;;;;;;;;
2021/05/03 07:41:30;;;;;;;7.05;3.22;;;;;;;13.25;40.83;100078.47;4334439;33;32510;-96
2021/05/03 07:44:38;;;;;;;5.28;2.70;;;;;;;13.40;41.22;100092.81;4206795;32;36611;-96
2021/05/03 07:47:15;;;;;;;4.32;2.33;;;;;;;13.35;41.81;100084.44;4344870;33;33245;-89
2021/05/03 07:49:58;;;;;;;2.97;2.33;;;;;;;13.76;40.53;100085.53;4333213;33;33762;-93
2021/05/03 07:52:31;;;;;;;3.67;2.83;;;;;;;13.93;37.69;100097.72;4341866;32;34373;-88
2021/05/03 07:55:07;;;;;;;4.78;2.67;;;;;;;13.47;38.52;100102.88;4338277;33;34919;-90
2021/05/03 07:57:44;;;;;;;3.42;2.35;;;;;;;13.41;38.52;100104.50;4341329;33;34704;-93
2021/05/03 08:00:28;;;;;;;3.70;2.50;;;;;;;13.69;39.54;100106.38;4337740;33;34919;-88
2021/05/03 08:03:12;;;;;;;5.65;1.90;;;;;;;13.67;38.82;100109.28;4341925;32;33236;-95
2021/05/03 08:05:51;;;;;;;;;;;;;;;13.64;37.85;100108.84;4342946;33;32869;-89
2021/05/03 08:08:29;;;;;;;4.20;3.00;;;;;;;14.03;36.67;100119.13;4356556;32;35796;-96
2021/05/03 08:11:07;;;;;;;3.60;1.60;;;;;;;14.32;38.71;100116.31;4355843;32;33216;-95
2021/05/03 08:14:07;;;;;;;3.50;2.10;;;;;;;14.25;36.68;100110.84;4326157;33;33623;-95
2021/05/03 08:17:30;;;;;;;2.92;1.98;;;;;;;14.59;37.83;100109.09;4316516;33;34168;-88
2021/05/03 08:20:04;;;;;;;6.50;2.37;;;;;;;14.16;36.17;100118.37;4338356;33;32554;-96
2021/05/03 08:22:41;;;;;;;4.32;2.53;;;;;;;14.08;35.74;100132.09;4332871;33;35354;-95
2021/05/03 08:25:50;;;;;;;4.18;2.90;;;;;;;14.40;40.39;100113.41;4316176;33;35043;-96
2021/05/03 08:28:54;;;;;;;5.00;2.45;;;;;;;14.57;37.33;100122.06;4298488;33;33275;-96
2021/05/03 08:32:04;;;;;;;5.12;2.65;;;;;;;14.82;36.33;100116.94;4043635;33;37176;-96
2021/05/03 08:34:42;;;;;;;4.97;2.78;;;;;;;14.69;37.41;100116.91;4279807;33;33183;-92
2021/05/03 08:37:15;;;;;;;4.87;2.60;;;;;;;14.86;36.23;100112.75;4303074;33;33451;-90
2021/05/03 08:39:47;;;;;;;11.10;4.72;;;;;;;15.05;36.82;100118.44;4303511;33;33306;-92
2021/05/03 08:42:22;;;;;;;9.15;4.10;;;;;;;15.47;37.32;100116.34;4298483;33;33663;-96
2021/05/03 08:45:12;;;;;;;4.30;3.05;;;;;;;15.22;33.67;100116.97;4296558;33;33839;-96
2021/05/03 08:50:51;;;;;;;3.50;2.00;;;;;;;15.48;33.73;100098.97;4348373;32;35268;-95
2021/05/03 08:53:55;;;;;;;3.20;2.25;;;;;;;15.98;34.64;100093.84;4333966;32;34585;-94
2021/05/03 08:56:23;;;;;;;4.15;2.22;;;;;;;16.00;33.55;100089.03;4320788;33;33589;-93
2021/05/03 08:58:59;;;;;;;4.32;2.17;;;;;;;16.09;31.90;100094.25;4343603;33;33505;-96
2021/05/03 09:01:49;;;;;;;3.50;2.40;;;;;;;15.47;33.91;100103.56;4332178;33;33240;-92
2021/05/03 09:04:34;;;;;;;3.00;2.50;;;;;;;15.29;34.32;100112.38;4351071;32;34627;-88
2021/05/03 09:07:15;;;;;;;3.10;2.42;;;;;;;15.30;33.76;100118.63;4326102;33;33367;-89
2021/05/03 09:09:54;;;;;;;5.20;2.42;;;;;;;15.89;32.25;100111.50;4353681;32;34280;-94
2021/05/03 09:12:28;;;;;;;3.35;1.92;;;;;;;15.52;32.50;100116.53;4333089;33;33238;-89
2021/05/03 09:15:11;;;;;;;2.85;2.08;;;;;;;15.58;32.68;100110.25;4340660;33;33574;-89
2021/05/03 09:17:44;;;;;;;2.45;1.92;;;;;;;15.62;33.97;100121.56;4333724;33;34789;-94
2021/05/03 09:20:22;;;;;;;4.10;2.15;;;;;;;15.25;31.15;100122.00;4326806;33;34472;-89
2021/05/03 09:23:33;;;;;;;3.25;2.20;;;;;;;15.69;32.55;100116.97;4352551;32;33108;-92
2021/05/03 09:26:03;;;;;;;4.15;1.67;;;;;;;15.62;31.69;100119.69;4347826;32;34714;-93
2021/05/03 09:28:43;;;;;;;4.37;2.00;;;;;;;16.08;32.54;100114.38;4320621;33;34242;-93
2021/05/03 09:31:16;;;;;;;2.92;2.40;;;;;;;16.05;29.89;100110.19;4343363;33;33672;-90
2021/05/03 09:33:50;;;;;;;4.03;2.60;;;;;;;15.86;31.26;100114.66;4332172;33;33950;-89
2021/05/03 09:36:25;;;;;;;3.90;2.37;;;;;;;16.10;32.00;100117.75;4330966;33;33355;-88
2021/05/03 09:38:59;;;;;;;2.40;2.00;;;;;;;15.98;31.24;100109.38;4330423;33;34524;-93
2021/05/03 09:41:32;;;;;;;3.35;2.10;;;;;;;16.49;32.55;100099.53;4356572;32;33301;-96
2021/05/03 09:44:08;;;;;;;2.83;1.95;;;;;;;16.38;32.97;100109.25;4341837;33;33756;-94
2021/05/03 09:46:46;;;;;;;4.70;2.12;;;;;;;16.47;32.15;100096.19;4342547;32;33671;-94
2021/05/03 09:49:43;;;;;;;2.87;2.20;;;;;;;16.54;32.44;100105.16;4316498;33;33509;-90
2021/05/03 09:52:19;;;;;;;4.20;2.05;;;;;;;17.01;32.69;100110.38;4311029;33;33259;-96
2021/05/03 09:55:18;;;;;;;3.95;1.75;;;;;;;16.98;31.71;100098.00;4327710;33;32745;-87
2021/05/03 09:58:20;;;;;;;5.82;2.28;;;;;;;17.70;30.05;100104.97;4315496;33;32185;-87
2021/05/03 10:00:57;;;;;;;5.85;2.40;;;;;;;18.43;28.24;100104.16;4326085;33;33665;-95
2021/05/03 10:03:48;;;;;;;2.85;1.85;;;;;;;18.56;28.97;100102.31;4317123;33;33996;-85
2021/05/03 10:06:20;;;;;;;4.10;1.55;;;;;;;18.30;28.31;100094.19;4315599;33;33094;-88
2021/05/03 10:08:57;;;;;;;5.47;1.95;;;;;;;17.40;28.39;100090.09;4339465;33;34511;-96
2021/05/03 10:11:39;;;;;;;7.20;2.45;;;;;;;17.26;29.94;100096.72;4331866;33;33804;-92
2021/05/03 10:14:12;;;;;;;1.87;1.67;;;;;;;17.18;30.11;100081.44;4328109;33;33358;-92
2021/05/03 10:16:44;;;;;;;1.87;1.42;;;;;;;17.39;31.45;100087.59;4303195;33;32978;-87
2021/05/03 10:19:21;;;;;;;4.93;1.70;;;;;;;18.28;28.58;100085.41;4315798;33;34476;-91
2021/05/03 10:21:54;;;;;;;3.65;1.73;;;;;;;18.06;29.60;100095.16;4313047;33;32940;-94
2021/05/03 10:24:35;;;;;;;2.42;1.40;;;;;;;18.51;27.43;100089.31;4326142;33;32412;-87
2021/05/03 10:27:20;;;;;;;2.42;1.42;;;;;;;18.81;25.97;100086.56;4316223;33;32531;-86
2021/05/03 10:30:19;;;;;;;3.95;1.70;;;;;;;18.92;27.49;100089.59;4324570;33;33375;-94
2021/05/03 10:32:58;;;;;;;3.25;2.00;;;;;;;18.63;26.17;100101.13;4316641;33;33734;-85
2021/05/03 10:35:52;;;;;;;3.17;1.60;;;;;;;18.79;26.54;100079.66;4318909;33;35939;-95
2021/05/03 10:38:27;;;;;;;2.90;2.35;;;;;;;19.32;28.60;100078.00;4318391;33;33137;-87
2021/05/03 10:41:26;;;;;;;2.17;1.52;;;;;;;19.50;26.21;100069.66;4316216;33;34646;-95
2021/05/03 10:44:18;;;;;;;2.37;1.35;;;;;;;18.92;26.11;100084.13;4339765;33;34431;-93
2021/05/03 10:47:03;;;;;;;1.73;1.23;;;;;;;19.15;25.21;100072.41;4326532;33;33574;-96
2021/05/03 10:49:48;;;;;;;3.72;1.73;;;;;;;19.27;25.68;100081.47;4314283;33;33807;-88
2021/05/03 10:52:36;;;;;;;1.35;1.00;;;;;;;18.64;24.62;100082.84;4328783;33;33883;-88
2021/05/03 10:55:09;;;;;;;2.05;1.50;;;;;;;19.73;24.89;100077.06;4318654;33;33940;-87
2021/05/03 10:58:04;;;;;;;2.03;1.50;;;;;;;19.56;23.19;100062.38;4303655;33;35003;-95
2021/05/03 11:01:04;;;;;;;2.33;1.58;;;;;;;19.50;28.77;100064.16;4293737;33;33557;-95
2021/05/03 11:03:55;;;;;;;2.30;1.30;;;;;;;20.54;23.50;100068.03;4313657;33;33733;-88
2021/05/03 11:06:37;;;;;;;3.45;1.35;;;;;;;20.79;24.00;100055.88;4316452;33;34411;-86
2021/05/03 11:09:35;;;;;;;3.80;2.05;;;;;;;19.80;23.61;100073.38;4318179;33;34554;-96
2021/05/03 11:12:15;;;;;;;2.20;1.60;;;;;;;20.27;26.91;100052.16;4314433;33;31680;-86
2021/05/03 11:15:29;;;;;;;2.47;1.65;;;;;;;20.72;24.53;100063.44;4326361;33;33718;-96
2021/05/03 11:18:25;;;;;;;1.75;1.42;;;;;;;19.74;25.78;100053.19;4328817;33;36787;-87
2021/05/03 11:21:01;;;;;;;1.70;1.35;;;;;;;20.40;26.10;100063.91;4334193;33;33886;-87
2021/05/03 11:23:36;;;;;;;8.10;1.10;;;;;;;19.92;22.45;100050.34;4332289;33;33849;-86
2021/05/03 11:26:28;;;;;;;4.53;1.25;;;;;;;19.41;23.70;100054.66;4347582;33;33726;-86
2021/05/03 11:29:14;;;;;;;1.55;1.20;;;;;;;20.00;23.09;100059.25;4347029;33;33749;-89
2021/05/03 11:31:47;;;;;;;4.45;1.37;;;;;;;20.09;22.66;100055.09;4324325;33;33633;-92
2021/05/03 11:34:32;;;;;;;3.17;1.23;;;;;;;19.72;23.50;100056.19;4344628;32;33129;-88
2021/05/03 11:37:14;;;;;;;2.83;1.55;;;;;;;20.79;22.99;100053.13;4343899;33;34252;-90
2021/05/03 11:43:08;;;;;;;3.53;1.37;;;;;;;21.19;25.03;100056.84;4349225;33;33298;-88
2021/05/03 11:45:43;;;;;;;2.45;1.48;;;;;;;20.44;23.33;100054.13;4321434;33;33657;-95
2021/05/03 11:48:28;;;;;;;3.58;1.30;;;;;;;19.18;24.77;100061.78;4346133;33;33095;-87
2021/05/03 11:51:06;;;;;;;2.92;1.00;;;;;;;18.93;23.69;100067.47;4348628;33;33482;-88
2021/05/03 11:53:43;;;;;;;3.83;1.33;;;;;;;19.01;24.69;100063.53;4324470;33;34844;-94
2021/05/03 11:56:30;;;;;;;2.00;1.27;;;;;;;18.44;24.02;100056.56;4323596;33;34298;-96
2021/05/03 11:59:03;;;;;;;2.97;1.10;;;;;;;18.48;25.14;100052.28;4336144;33;33782;-90
2021/05/03 12:01:35;;;;;;;4.72;1.20;;;;;;;19.21;23.85;100060.50;4322243;33;34645;-88
2021/05/03 12:04:11;;;;;;;2.40;1.73;;;;;;;19.48;24.33;100060.84;4347104;33;33439;-95
2021/05/03 12:06:44;;;;;;;5.35;2.05;;;;;;;20.02;23.91;100059.88;4323300;33;33873;-93
2021/05/03 12:09:49;;;;;;;2.75;1.10;;;;;;;21.10;22.37;100046.25;4333105;33;33702;-96
2021/05/03 12:12:35;;;;;;;2.92;1.37;;;;;;;21.54;23.69;100037.31;4345227;32;33489;-88
2021/05/03 12:15:17;;;;;;;3.65;1.23;;;;;;;21.57;22.49;100047.00;4324124;33;33544;-89
2021/05/03 12:18:04;;;;;;;3.90;1.35;;;;;;;20.65;20.89;100055.34;4351997;32;33096;-89
2021/05/03 12:20:40;;;;;;;4.57;1.73;;;;;;;21.47;21.17;100039.41;4332545;33;34215;-93
2021/05/03 12:23:26;;;;;;;2.47;1.42;;;;;;;21.09;21.19;100050.09;4312696;33;33967;-96
2021/05/03 12:26:10;;;;;;;1.90;1.10;;;;;;;22.00;22.00;100040.69;4328618;33;32964;-96
2021/05/03 12:28:53;;;;;;;4.85;1.58;;;;;;;22.10;23.09;100039.19;4347933;33;33198;-88
2021/05/03 12:31:26;;;;;;;3.58;1.33;;;;;;;20.47;20.46;100037.16;4346214;33;33688;-87
2021/05/03 12:34:01;;;;;;;3.17;1.30;;;;;;;20.17;20.75;100035.47;4334656;33;34582;-87
2021/05/03 12:37:21;;;;;;;2.42;1.55;;;;;;;20.34;21.09;100031.97;4324548;33;33660;-96
2021/05/03 12:40:09;;;;;;;1.65;1.27;;;;;;;20.78;22.79;100024.03;4320304;33;34441;-88